Time;durP1;ratioP1;P1;durP2;ratioP2;P2;SDS_P1;SDS_P2;PMS_P1;PMS_P2;Temp;Humidity;BMP_temperature;BMP_pressure;BME280_temperature;BME280_humidity;BME280_pressure;Samples;Min_cycle;Max_cycle;Signal;HPM_P1;HPM_P2
2022/04/12 00:00:06;;;;;;;6.13;4.77;;;8.10;1.00;;;;;;4954474;28;20609;-65
2022/04/12 00:02:43;;;;;;;6.43;5.00;;;8.10;1.00;;;;;;4948519;28;20206;-67
2022/04/12 00:05:11;;;;;;;6.43;4.90;;;8.10;1.00;;;;;;4950049;28;20210;-64
2022/04/12 00:07:57;;;;;;;7.17;5.30;;;8.10;1.00;;;;;;4957827;28;20191;-64
2022/04/12 00:10:24;;;;;;;9.23;5.23;;;8.00;3.90;;;;;;4926487;28;20258;-63
2022/04/12 00:12:51;;;;;;;6.10;4.63;;;7.90;28.10;;;;;;4952790;28;20246;-64
2022/04/12 00:15:22;;;;;;;8.70;4.63;;;7.90;45.40;;;;;;4942424;28;20610;-63
2022/04/12 00:20:36;;;;;;;6.97;4.97;;;7.90;50.90;;;;;;4949003;28;20233;-63
2022/04/12 00:23:04;;;;;;;7.53;5.60;;;7.80;66.60;;;;;;4958690;28;20213;-64
2022/04/12 00:25:32;;;;;;;7.93;5.30;;;7.80;62.90;;;;;;4946036;28;20781;-63
2022/04/12 00:28:00;;;;;;;7.57;4.87;;;7.70;82.10;;;;;;4945030;28;20202;-66
2022/04/12 00:30:28;;;;;;;11.73;5.30;;;7.70;76.30;;;;;;4942480;28;20195;-65
2022/04/12 00:32:56;;;;;;;7.70;5.67;;;7.70;80.70;;;;;;4946014;28;20325;-66
2022/04/12 00:35:25;;;;;;;8.87;5.00;;;7.70;91.50;;;;;;4960459;28;20948;-65
2022/04/12 00:37:53;;;;;;;10.63;5.00;;;7.70;96.70;;;;;;4962693;28;20554;-65
2022/04/12 00:40:24;;;;;;;5.80;5.20;;;7.60;99.90;;;;;;4951184;28;20199;-66
2022/04/12 00:42:53;;;;;;;5.60;4.73;;;7.50;99.90;;;;;;4947302;28;20195;-66
2022/04/12 00:45:21;;;;;;;5.70;4.73;;;7.50;99.90;;;;;;4963922;28;20675;-65
2022/04/12 00:47:48;;;;;;;6.20;5.03;;;7.50;99.90;;;;;;4947100;28;20380;-66
2022/04/12 00:50:15;;;;;;;6.47;5.13;;;7.40;99.90;;;;;;4963212;28;20200;-65
2022/04/12 00:52:45;;;;;;;7.63;5.00;;;7.40;99.90;;;;;;4953207;28;20190;-64
2022/04/12 00:55:12;;;;;;;6.47;5.10;;;7.30;99.90;;;;;;4951679;28;20209;-65
2022/04/12 00:57:41;;;;;;;7.53;5.33;;;7.30;99.90;;;;;;4946890;28;20254;-65
2022/04/12 01:00:09;;;;;;;6.23;5.03;;;7.10;99.90;;;;;;4936068;28;20211;-65
2022/04/12 01:02:37;;;;;;;8.30;5.50;;;7.10;99.90;;;;;;4948101;28;20222;-65
2022/04/12 01:05:05;;;;;;;7.80;5.47;;;7.00;99.90;;;;;;4963978;28;20219;-66
2022/04/12 01:07:33;;;;;;;6.03;4.80;;;7.00;99.90;;;;;;4953434;28;20705;-64
2022/04/12 01:10:01;;;;;;;7.30;5.70;;;7.00;99.90;;;;;;4945400;28;20211;-65
2022/04/12 01:12:30;;;;;;;6.70;5.43;;;7.00;99.90;;;;;;4952534;28;20206;-65
2022/04/12 01:15:12;;;;;;;7.03;5.33;;;7.00;99.90;;;;;;4953720;28;20423;-64
2022/04/12 01:17:39;;;;;;;9.83;5.53;;;6.90;99.90;;;;;;4960402;28;20207;-64
2022/04/12 01:20:07;;;;;;;9.80;5.77;;;6.80;99.90;;;;;;4930165;28;20265;-65
2022/04/12 01:22:36;;;;;;;8.50;5.77;;;6.80;99.90;;;;;;4963208;28;20237;-66
2022/04/12 01:25:04;;;;;;;6.47;5.63;;;6.80;99.90;;;;;;4945919;28;20222;-65
2022/04/12 01:27:31;;;;;;;7.37;5.77;;;6.70;99.90;;;;;;4961791;28;20927;-65
2022/04/12 01:29:58;;;;;;;6.67;5.73;;;6.60;1.00;;;;;;4944669;28;20756;-65
2022/04/12 01:32:25;;;;;;;7.00;5.60;;;6.60;1.00;;;;;;4946381;28;20991;-65
2022/04/12 01:34:52;;;;;;;7.53;5.93;;;6.60;1.00;;;;;;4963162;28;20202;-66
2022/04/12 01:37:19;;;;;;;6.90;6.20;;;6.60;1.00;;;;;;4964267;28;20202;-65
2022/04/12 01:39:46;;;;;;;6.37;5.47;;;6.60;1.00;;;;;;4963245;28;20190;-65
2022/04/12 01:42:13;;;;;;;7.93;5.20;;;6.60;1.00;;;;;;4963629;28;20206;-65
2022/04/12 01:44:40;;;;;;;6.93;5.73;;;6.50;1.00;;;;;;4946070;28;20257;-66
2022/04/12 01:47:07;;;;;;;9.97;5.93;;;6.60;1.00;;;;;;4945064;28;20244;-65
2022/04/12 01:49:34;;;;;;;7.30;6.00;;;6.60;1.00;;;;;;4944624;28;20199;-65
2022/04/12 01:52:02;;;;;;;7.57;5.60;;;6.50;1.00;;;;;;4963633;28;20282;-65
2022/04/12 01:54:30;;;;;;;6.83;5.60;;;6.50;1.00;;;;;;4963549;28;20199;-65
2022/04/12 01:56:57;;;;;;;9.17;5.60;;;6.50;1.00;;;;;;4961102;28;20201;-64
2022/04/12 01:59:24;;;;;;;7.43;5.43;;;6.50;1.00;;;;;;4936847;28;20524;-66
2022/04/12 02:01:51;;;;;;;7.10;5.57;;;6.50;1.00;;;;;;4961602;28;20628;-65
2022/04/12 02:04:18;;;;;;;10.97;6.20;;;6.50;1.00;;;;;;4962462;28;20209;-65
2022/04/12 02:06:45;;;;;;;8.23;5.40;;;6.40;1.00;;;;;;4961549;28;20207;-65
2022/04/12 02:09:12;;;;;;;6.93;5.93;;;6.40;1.00;;;;;;4944557;28;20199;-65
2022/04/12 02:11:39;;;;;;;11.13;5.97;;;6.40;1.00;;;;;;4963393;28;20848;-65
2022/04/12 02:14:07;;;;;;;8.00;6.00;;;6.40;1.00;;;;;;4962100;28;20694;-65
2022/04/12 02:16:35;;;;;;;8.37;5.00;;;6.40;1.00;;;;;;4944905;28;20214;-65
2022/04/12 02:19:03;;;;;;;8.03;5.97;;;6.40;1.00;;;;;;4963153;28;20281;-65
2022/04/12 02:21:30;;;;;;;7.70;5.83;;;6.40;1.00;;;;;;4945771;28;20226;-65
2022/04/12 02:23:59;;;;;;;7.47;5.93;;;6.40;1.00;;;;;;4961037;28;20195;-65
2022/04/12 02:26:26;;;;;;;7.00;5.87;;;6.40;1.00;;;;;;4949887;28;20230;-65
2022/04/12 02:28:53;;;;;;;8.73;5.90;;;6.30;1.00;;;;;;4962252;28;20601;-67
2022/04/12 02:31:20;;;;;;;6.30;5.53;;;6.30;1.00;;;;;;4961049;28;20285;-66
2022/04/12 02:33:47;;;;;;;9.00;6.03;;;6.30;1.00;;;;;;4943796;28;20807;-65
2022/04/12 02:36:14;;;;;;;10.90;6.17;;;6.40;1.00;;;;;;4944770;28;20190;-65
2022/04/12 02:38:42;;;;;;;7.70;5.40;;;6.40;1.00;;;;;;4942878;28;20202;-65
2022/04/12 02:41:09;;;;;;;7.80;5.60;;;6.40;1.00;;;;;;4955599;28;20628;-67
2022/04/12 02:43:37;;;;;;;6.87;5.60;;;6.40;1.00;;;;;;4950904;28;20206;-65
2022/04/12 02:46:04;;;;;;;9.27;5.77;;;6.40;1.00;;;;;;4960609;28;20297;-65
2022/04/12 02:48:31;;;;;;;7.20;6.03;;;6.30;1.00;;;;;;4945335;28;20539;-65
2022/04/12 02:50:58;;;;;;;8.87;5.83;;;6.30;1.00;;;;;;4944511;28;20283;-65
2022/04/12 02:53:25;;;;;;;6.63;5.27;;;6.20;1.00;;;;;;4946746;28;20194;-66
2022/04/12 02:55:51;;;;;;;10.13;5.30;;;6.10;1.00;;;;;;4957634;28;20202;-65
2022/04/12 02:58:19;;;;;;;8.50;5.20;;;6.10;1.00;;;;;;4959074;28;20191;-64
2022/04/12 03:00:46;;;;;;;8.20;5.77;;;6.00;1.00;;;;;;4956659;28;20208;-64
2022/04/12 03:03:13;;;;;;;7.30;5.17;;;6.00;1.00;;;;;;4934168;28;20241;-64
2022/04/12 03:05:40;;;;;;;7.60;5.73;;;6.00;1.00;;;;;;4930671;28;20213;-64
2022/04/12 03:08:07;;;;;;;11.63;6.57;;;5.90;1.00;;;;;;4929113;28;20975;-65
2022/04/12 03:10:34;;;;;;;8.40;5.60;;;5.90;1.00;;;;;;4947687;28;20702;-65
2022/04/12 03:13:01;;;;;;;8.20;6.30;;;5.90;1.00;;;;;;4957039;28;20281;-65
2022/04/12 03:15:28;;;;;;;8.40;6.00;;;5.80;1.00;;;;;;4945012;28;20245;-64
2022/04/12 03:17:55;;;;;;;8.07;6.00;;;5.80;1.00;;;;;;4962851;28;20231;-65
2022/04/12 03:20:22;;;;;;;7.77;6.03;;;5.70;1.00;;;;;;4954955;28;20309;-66
2022/04/12 03:22:49;;;;;;;9.73;5.93;;;5.70;1.00;;;;;;4951156;28;20308;-64
2022/04/12 03:25:16;;;;;;;8.03;5.67;;;5.70;1.00;;;;;;4960711;28;20253;-65
2022/04/12 03:27:43;;;;;;;10.47;6.37;;;5.70;1.00;;;;;;4967888;28;20206;-64
2022/04/12 03:30:11;;;;;;;8.30;5.83;;;5.70;1.00;;;;;;4941832;28;20191;-65
2022/04/12 03:32:38;;;;;;;8.30;6.13;;;5.70;1.00;;;;;;4956115;28;20191;-65
2022/04/12 03:35:05;;;;;;;8.43;6.43;;;5.70;1.00;;;;;;4936619;28;20660;-64
2022/04/12 03:37:32;;;;;;;7.83;6.20;;;5.60;1.00;;;;;;4956362;28;20202;-65
2022/04/12 03:40:00;;;;;;;8.77;6.10;;;5.60;1.00;;;;;;4957327;28;20258;-65
2022/04/12 03:42:27;;;;;;;8.77;6.67;;;5.60;1.00;;;;;;4942237;28;20894;-65
2022/04/12 03:44:54;;;;;;;9.93;6.43;;;5.70;1.00;;;;;;4956365;28;20216;-65
2022/04/12 03:47:21;;;;;;;9.17;6.03;;;5.70;1.00;;;;;;4945758;28;20270;-65
2022/04/12 03:49:48;;;;;;;10.03;6.17;;;5.70;1.00;;;;;;4946075;28;20206;-65
2022/04/12 03:52:15;;;;;;;8.10;6.13;;;5.70;1.00;;;;;;4955214;28;20592;-65
2022/04/12 03:54:42;;;;;;;8.57;6.60;;;5.70;1.00;;;;;;4936985;28;20321;-65
2022/04/12 03:57:09;;;;;;;8.10;6.40;;;5.70;1.00;;;;;;4938681;28;20199;-64
2022/04/12 03:59:36;;;;;;;8.97;6.03;;;5.70;1.00;;;;;;4943003;28;20213;-64
2022/04/12 04:02:03;;;;;;;7.03;5.70;;;5.70;1.00;;;;;;4954728;28;20654;-64
2022/04/12 04:04:31;;;;;;;9.97;6.53;;;5.70;1.00;;;;;;4956065;28;20238;-64
2022/04/12 04:07:03;;;;;;;9.13;6.03;;;5.70;1.00;;;;;;4957392;28;20639;-64
2022/04/12 04:09:30;;;;;;;9.50;6.70;;;5.60;1.00;;;;;;4927647;28;20202;-64
2022/04/12 04:11:57;;;;;;;8.30;6.30;;;5.60;1.00;;;;;;4943205;28;20226;-64
2022/04/12 04:14:26;;;;;;;8.33;6.13;;;5.80;1.00;;;;;;4949369;28;20193;-65
2022/04/12 04:16:53;;;;;;;11.17;6.43;;;5.80;1.00;;;;;;4950607;28;20259;-64
2022/04/12 04:19:20;;;;;;;12.57;6.87;;;5.90;1.00;;;;;;4948836;28;20213;-64
2022/04/12 04:21:47;;;;;;;9.10;6.37;;;5.80;1.00;;;;;;4962768;28;20963;-64
2022/04/12 04:24:14;;;;;;;6.07;5.47;;;5.80;1.00;;;;;;4940489;28;20257;-65
2022/04/12 04:26:42;;;;;;;7.07;6.30;;;5.80;1.00;;;;;;4956781;28;20921;-64
2022/04/12 04:29:09;;;;;;;7.47;5.87;;;5.70;1.00;;;;;;4962221;28;20250;-64
2022/04/12 04:31:36;;;;;;;9.43;6.13;;;5.80;1.00;;;;;;4947717;28;20254;-64
2022/04/12 04:34:03;;;;;;;8.80;6.53;;;5.70;1.00;;;;;;4960840;28;20233;-64
2022/04/12 04:36:30;;;;;;;13.87;6.20;;;5.70;1.00;;;;;;4961258;28;20266;-64
2022/04/12 04:38:57;;;;;;;7.73;5.73;;;5.60;1.00;;;;;;4959203;28;20600;-64
2022/04/12 04:41:24;;;;;;;8.93;6.20;;;5.60;1.00;;;;;;4960235;28;20206;-64
2022/04/12 04:43:52;;;;;;;7.83;5.53;;;5.60;1.00;;;;;;4943174;28;20285;-64
2022/04/12 04:46:19;;;;;;;10.37;6.40;;;5.70;1.00;;;;;;4948115;28;20848;-64
2022/04/12 04:48:46;;;;;;;9.70;6.70;;;5.70;1.00;;;;;;4960611;28;20281;-65
2022/04/12 04:51:13;;;;;;;11.17;7.07;;;5.90;1.00;;;;;;4947915;28;20202;-64
2022/04/12 04:53:42;;;;;;;12.30;6.97;;;5.90;1.00;;;;;;4941499;28;20204;-64
2022/04/12 04:56:09;;;;;;;9.63;5.70;;;6.00;1.00;;;;;;4957848;28;20218;-65
2022/04/12 04:58:36;;;;;;;9.40;6.40;;;6.10;1.00;;;;;;4947922;28;20202;-66
2022/04/12 05:01:03;;;;;;;9.47;6.00;;;6.20;1.00;;;;;;4957430;28;20553;-63
2022/04/12 05:03:30;;;;;;;9.90;6.70;;;6.30;1.00;;;;;;4960082;28;20689;-64
2022/04/12 05:05:57;;;;;;;12.57;6.93;;;6.50;1.00;;;;;;4941629;28;20440;-64
2022/04/12 05:08:24;;;;;;;15.47;7.53;;;6.60;1.00;;;;;;4932673;28;20725;-64
2022/04/12 05:10:51;;;;;;;11.57;6.90;;;6.70;1.00;;;;;;4957288;28;20218;-64
2022/04/12 05:13:18;;;;;;;8.20;6.43;;;6.80;1.00;;;;;;4957910;28;20714;-65
2022/04/12 05:15:45;;;;;;;8.07;5.53;;;6.90;1.00;;;;;;4939423;28;20228;-64
2022/04/12 05:18:12;;;;;;;11.13;5.73;;;7.00;1.00;;;;;;4955843;28;20218;-63
2022/04/12 05:20:39;;;;;;;10.37;6.13;;;7.10;1.00;;;;;;4937859;28;20232;-64
2022/04/12 05:23:11;;;;;;;8.03;5.93;;;7.30;1.00;;;;;;4959270;28;20246;-63
2022/04/12 05:25:38;;;;;;;7.87;5.03;;;7.40;99.90;;;;;;4946596;28;20325;-64
2022/04/12 05:28:05;;;;;;;9.17;7.10;;;7.60;99.90;;;;;;4956767;28;20195;-64
2022/04/12 05:30:31;;;;;;;10.07;6.97;;;7.60;99.90;;;;;;4959228;28;20218;-64
2022/04/12 05:32:59;;;;;;;7.70;5.57;;;7.60;99.90;;;;;;4943702;28;20202;-64
2022/04/12 05:35:26;;;;;;;9.90;6.17;;;7.80;99.90;;;;;;4948895;28;20199;-64
2022/04/12 05:37:53;;;;;;;8.27;5.37;;;8.00;99.90;;;;;;4957137;28;20203;-64
2022/04/12 05:40:22;;;;;;;9.10;5.57;;;8.10;99.90;;;;;;4929514;28;20206;-64
2022/04/12 05:42:51;;;;;;;7.57;5.63;;;8.20;99.90;;;;;;4926658;28;20197;-63
2022/04/12 05:45:19;;;;;;;12.87;6.50;;;8.20;99.90;;;;;;4948207;28;20203;-63
2022/04/12 05:47:49;;;;;;;9.40;6.30;;;8.20;99.90;;;;;;4961151;28;20205;-63
2022/04/12 05:50:18;;;;;;;8.23;5.80;;;8.30;99.90;;;;;;4963394;28;20207;-65
2022/04/12 05:52:46;;;;;;;8.30;5.87;;;8.40;99.90;;;;;;4960131;28;20230;-64
2022/04/12 05:55:15;;;;;;;7.73;5.23;;;8.40;99.90;;;;;;4956997;28;20673;-64
2022/04/12 05:58:04;;;;;;;9.33;5.40;;;8.70;99.90;;;;;;4958416;28;20207;-63
2022/04/12 06:00:32;;;;;;;7.67;5.23;;;9.10;99.90;;;;;;4957379;28;20650;-64
2022/04/12 06:03:00;;;;;;;7.40;5.07;;;9.20;8.50;;;;;;4957232;28;20234;-64
2022/04/12 06:05:30;;;;;;;9.47;5.67;;;9.10;35.60;;;;;;4942419;28;20199;-63
2022/04/12 06:07:59;;;;;;;9.03;5.37;;;9.10;84.90;;;;;;4944599;28;20199;-66
2022/04/12 06:10:26;;;;;;;7.00;5.60;;;9.10;46.10;;;;;;4941558;28;20191;-63
2022/04/12 06:13:01;;;;;;;7.43;5.33;;;9.30;67.70;;;;;;4942880;28;20322;-64
2022/04/12 06:15:28;;;;;;;7.27;5.80;;;9.50;1.00;;;;;;4928780;28;20203;-63
2022/04/12 06:17:55;;;;;;;6.37;5.60;;;9.60;1.00;;;;;;4957878;28;20195;-64
2022/04/12 06:20:22;;;;;;;6.93;5.63;;;10.70;1.00;;;;;;4943939;28;21058;-64
2022/04/12 06:22:49;;;;;;;6.70;4.87;;;12.60;1.00;;;;;;4959771;28;20194;-64
2022/04/12 06:25:19;;;;;;;5.93;4.93;;;14.30;1.00;;;;;;4942457;28;20234;-65
2022/04/12 06:27:51;;;;;;;6.93;4.70;;;15.30;99.90;;;;;;4958391;28;20217;-65
2022/04/12 06:30:22;;;;;;;6.55;4.68;;;16.80;99.90;;;;;;4955886;28;20287;-64
2022/04/12 06:32:50;;;;;;;6.18;4.78;;;16.90;99.90;;;;;;4951547;28;20202;-64
2022/04/12 06:35:17;;;;;;;6.30;4.82;;;16.90;99.90;;;;;;4957883;28;20707;-64
2022/04/12 06:37:48;;;;;;;7.28;5.05;;;17.90;99.90;;;;;;4954767;28;20222;-64
2022/04/12 06:40:17;;;;;;;5.35;4.75;;;19.80;99.90;;;;;;4953796;28;20607;-64
2022/04/12 06:42:44;;;;;;;5.75;5.00;;;19.60;99.90;;;;;;4943894;28;20751;-65
2022/04/12 06:45:13;;;;;;;6.15;4.53;;;18.10;99.90;;;;;;4942154;28;20198;-64
2022/04/12 06:47:41;;;;;;;9.10;5.18;;;17.10;99.90;;;;;;4927613;28;20222;-65
2022/04/12 06:50:12;;;;;;;8.85;5.60;;;16.10;99.90;;;;;;4953927;28;20337;-64
2022/04/12 06:52:39;;;;;;;7.75;5.30;;;16.60;99.90;;;;;;4957533;28;20210;-64
2022/04/12 06:55:06;;;;;;;5.45;4.88;;;17.10;99.90;;;;;;4956297;28;20195;-64
2022/04/12 06:57:35;;;;;;;7.40;5.07;;;19.10;99.90;;;;;;4941531;28;20198;-64
2022/04/12 07:00:07;;;;;;;8.30;5.45;;;20.10;99.90;;;;;;4955574;28;20606;-64
2022/04/12 07:02:36;;;;;;;5.78;5.13;;;19.50;99.90;;;;;;4955102;28;20225;-64
2022/04/12 07:05:04;;;;;;;6.53;5.18;;;19.80;99.90;;;;;;4938888;28;20207;-64
2022/04/12 07:07:38;;;;;;;8.88;5.30;;;19.80;99.90;;;;;;4956079;28;20222;-64
2022/04/12 07:10:07;;;;;;;8.93;5.15;;;20.50;99.90;;;;;;4943182;28;20217;-64
2022/04/12 07:12:35;;;;;;;6.60;5.43;;;21.90;99.90;;;;;;4955485;28;20203;-65
2022/04/12 07:15:03;;;;;;;7.35;5.25;;;22.30;99.90;;;;;;4956926;28;20276;-64
2022/04/12 07:17:30;;;;;;;7.88;5.28;;;21.70;99.90;;;;;;4938637;28;20740;-64
2022/04/12 07:19:58;;;;;;;7.07;4.97;;;22.20;99.90;;;;;;4958799;28;20207;-64
2022/04/12 07:22:25;;;;;;;6.10;4.85;;;21.20;99.90;;;;;;4945714;28;20225;-64
2022/04/12 07:24:52;;;;;;;6.30;4.72;;;21.60;99.90;;;;;;4959674;28;20206;-65
2022/04/12 07:27:19;;;;;;;7.82;5.20;;;22.20;99.90;;;;;;4957024;28;20210;-64
2022/04/12 07:29:46;;;;;;;8.63;5.60;;;22.70;99.90;;;;;;4955631;28;20673;-65
2022/04/12 07:32:15;;;;;;;7.88;5.35;;;23.00;99.90;;;;;;4952487;28;20206;-66
2022/04/12 07:34:42;;;;;;;5.28;4.78;;;23.20;99.90;;;;;;4957948;28;20198;-65
2022/04/12 07:37:09;;;;;;;8.77;5.25;;;25.40;99.90;;;;;;4938578;28;20589;-64
2022/04/12 07:39:36;;;;;;;7.03;5.35;;;25.40;99.90;;;;;;4942847;28;20201;-64
2022/04/12 07:42:05;;;;;;;6.93;5.60;;;24.90;99.90;;;;;;4923492;28;20293;-65
2022/04/12 07:44:37;;;;;;;7.90;5.20;;;22.70;99.90;;;;;;4957615;28;20673;-64
2022/04/12 07:47:04;;;;;;;7.88;5.35;;;22.60;99.90;;;;;;4951092;28;20285;-65
2022/04/12 07:49:31;;;;;;;7.68;5.53;;;22.90;99.90;;;;;;4953097;28;20210;-65
2022/04/12 07:51:58;;;;;;;9.02;5.68;;;23.20;99.90;;;;;;4937907;28;20208;-65
2022/04/12 07:54:27;;;;;;;8.88;5.53;;;23.80;99.90;;;;;;4952887;28;20556;-65
2022/04/12 07:56:57;;;;;;;6.78;5.05;;;25.20;99.90;;;;;;4944048;28;20240;-66
2022/04/12 07:59:24;;;;;;;7.13;5.47;;;27.10;99.90;;;;;;4951904;28;20206;-65
2022/04/12 08:01:51;;;;;;;7.50;5.07;;;26.10;99.90;;;;;;4951401;28;20194;-65
2022/04/12 08:04:18;;;;;;;7.90;4.85;;;26.70;99.90;;;;;;4934797;28;20229;-66
2022/04/12 08:06:46;;;;;;;6.90;4.70;;;23.50;99.90;;;;;;4944621;28;20265;-65
2022/04/12 08:09:13;;;;;;;8.68;5.47;;;25.90;99.90;;;;;;4936370;28;20202;-66
2022/04/12 08:11:40;;;;;;;7.60;4.80;;;26.60;99.90;;;;;;4951968;28;20737;-65
2022/04/12 08:14:06;;;;;;;6.60;5.30;;;27.10;99.90;;;;;;4952760;28;20258;-66
2022/04/12 08:16:34;;;;;;;5.50;4.90;;;27.30;99.90;;;;;;4941144;28;20306;-66
2022/04/12 08:19:01;;;;;;;6.00;5.07;;;23.80;99.90;;;;;;4937780;28;20206;-66
2022/04/12 08:21:32;;;;;;;6.72;5.10;;;26.10;99.90;;;;;;4942078;28;20218;-65
2022/04/12 08:23:59;;;;;;;6.05;5.18;;;27.50;99.90;;;;;;4956619;28;20240;-64
2022/04/12 08:26:26;;;;;;;5.80;5.20;;;28.50;99.90;;;;;;4951224;28;20644;-66
2022/04/12 08:28:53;;;;;;;5.88;4.63;;;27.90;99.90;;;;;;4938590;28;20230;-66
2022/04/12 08:31:20;;;;;;;7.88;5.35;;;29.80;99.90;;;;;;4923763;28;20669;-65
2022/04/12 08:33:48;;;;;;;5.40;4.63;;;28.10;99.90;;;;;;4939032;28;20321;-65
2022/04/12 08:36:16;;;;;;;5.88;5.10;;;30.90;99.90;;;;;;4950397;28;20699;-64
2022/04/12 08:38:44;;;;;;;7.35;4.93;;;32.30;99.90;;;;;;4941471;28;20249;-65
2022/04/12 08:41:13;;;;;;;10.57;4.75;;;31.10;99.90;;;;;;4951673;28;20214;-65
2022/04/12 08:43:42;;;;;;;5.97;5.13;;;30.00;99.90;;;;;;4939989;28;20588;-65
2022/04/12 08:46:10;;;;;;;6.43;4.75;;;29.20;99.90;;;;;;4942724;28;20195;-67
2022/04/12 08:48:38;;;;;;;6.47;4.63;;;29.80;99.90;;;;;;4957282;28;20209;-64
2022/04/12 08:51:06;;;;;;;8.57;5.20;;;29.60;99.90;;;;;;4955510;28;21071;-64
2022/04/12 08:53:34;;;;;;;5.53;4.78;;;26.10;99.90;;;;;;4941435;28;20249;-64
2022/04/12 08:56:01;;;;;;;9.13;5.28;;;28.20;99.90;;;;;;4956696;28;20646;-64
2022/04/12 08:58:28;;;;;;;6.85;5.10;;;28.70;99.90;;;;;;4960084;28;20198;-64
2022/04/12 09:00:56;;;;;;;8.65;4.78;;;29.60;99.90;;;;;;4942796;28;20199;-64
2022/04/12 09:03:23;;;;;;;6.07;4.53;;;28.90;99.90;;;;;;4959898;28;20202;-64
2022/04/12 09:05:52;;;;;;;6.55;4.80;;;28.00;99.90;;;;;;4939401;28;20297;-65
2022/04/12 09:08:27;;;;;;;6.05;4.57;;;28.30;99.90;;;;;;4960557;28;20287;-65
2022/04/12 09:11:05;;;;;;;5.60;4.63;;;29.00;99.90;;;;;;4958532;28;20205;-66
2022/04/12 09:13:33;;;;;;;6.20;4.75;;;27.50;99.90;;;;;;4960211;28;20636;-66
2022/04/12 09:16:00;;;;;;;5.13;4.30;;;29.50;99.90;;;;;;4940411;28;20205;-66
2022/04/12 09:18:44;;;;;;;5.55;4.18;;;31.80;99.90;;;;;;4957223;28;20230;-66
2022/04/12 09:21:17;;;;;;;7.75;4.35;;;32.90;99.90;;;;;;4957272;28;20598;-66
2022/04/12 09:23:49;;;;;;;6.05;4.82;;;30.20;99.90;;;;;;4931399;28;20304;-64
2022/04/12 09:26:23;;;;;;;5.38;4.78;;;28.80;99.90;;;;;;4961605;28;20692;-65
2022/04/12 09:28:52;;;;;;;5.20;4.30;;;30.30;99.90;;;;;;4962258;28;20650;-66
2022/04/12 09:31:22;;;;;;;7.15;4.90;;;26.30;99.90;;;;;;4961597;28;20664;-65
2022/04/12 09:33:51;;;;;;;5.05;4.32;;;28.80;99.90;;;;;;4960086;28;20198;-67
2022/04/12 09:36:18;;;;;;;5.50;4.55;;;30.60;99.90;;;;;;4957049;28;20293;-66
2022/04/12 09:38:47;;;;;;;8.77;4.55;;;30.80;99.90;;;;;;4955510;28;20254;-66
2022/04/12 09:41:23;;;;;;;4.88;3.45;;;30.90;99.90;;;;;;4957274;28;20208;-66
2022/04/12 09:43:54;;;;;;;3.70;2.97;;;28.10;99.90;;;;;;4942758;28;20202;-65
2022/04/12 09:46:22;;;;;;;4.97;3.10;;;27.20;99.90;;;;;;4957432;28;20583;-64
2022/04/12 09:48:52;;;;;;;4.07;2.58;;;25.70;99.90;;;;;;4936667;28;20778;-65
2022/04/12 09:51:22;;;;;;;5.05;2.70;;;25.40;99.90;;;;;;4958653;28;20829;-65
2022/04/12 09:53:50;;;;;;;6.18;2.70;;;25.20;99.90;;;;;;4947220;28;20221;-65
2022/04/12 09:56:29;;;;;;;3.50;2.67;;;24.70;99.90;;;;;;4958078;28;20223;-66
2022/04/12 09:58:58;;;;;;;3.55;2.53;;;24.20;99.90;;;;;;4943011;28;20226;-64
2022/04/12 10:01:26;;;;;;;4.88;2.53;;;27.00;99.90;;;;;;4965597;28;20199;-68
2022/04/12 10:03:56;;;;;;;6.43;2.67;;;27.50;99.90;;;;;;4958052;28;20249;-66
2022/04/12 10:06:25;;;;;;;3.55;2.20;;;28.20;99.90;;;;;;4944676;28;20848;-65
2022/04/12 10:08:58;;;;;;;2.65;2.17;;;27.40;99.90;;;;;;4960319;28;20721;-65
2022/04/12 10:11:27;;;;;;;3.40;2.10;;;26.50;99.90;;;;;;4940193;28;20809;-64
2022/04/12 10:13:56;;;;;;;4.32;2.13;;;28.30;99.90;;;;;;4956715;28;20767;-64
2022/04/12 10:16:23;;;;;;;5.72;2.50;;;29.30;99.90;;;;;;4956010;28;20206;-66
2022/04/12 10:18:50;;;;;;;3.65;1.95;;;28.20;99.90;;;;;;4957749;28;20202;-66
2022/04/12 10:21:19;;;;;;;3.75;2.47;;;28.40;99.90;;;;;;4928124;28;20725;-64
2022/04/12 10:23:54;;;;;;;2.70;2.20;;;27.50;99.90;;;;;;4956703;28;20205;-64
2022/04/12 10:26:24;;;;;;;4.60;2.10;;;26.00;99.90;;;;;;4941063;28;20245;-64
2022/04/12 10:29:05;;;;;;;2.85;2.10;;;25.40;99.90;;;;;;4959382;28;20238;-64
2022/04/12 10:31:33;;;;;;;3.72;2.15;;;24.60;99.90;;;;;;4958804;28;20603;-65
2022/04/12 10:34:09;;;;;;;3.67;1.95;;;25.90;99.90;;;;;;4941286;28;20206;-65
2022/04/12 10:36:57;;;;;;;2.70;1.95;;;26.10;99.90;;;;;;4944107;28;20650;-65
2022/04/12 10:39:50;;;;;;;2.80;1.85;;;27.10;99.90;;;;;;4943774;28;20285;-66
2022/04/12 10:42:20;;;;;;;2.35;1.80;;;27.00;99.90;;;;;;4955528;28;20190;-65
2022/04/12 10:44:52;;;;;;;2.63;1.80;;;26.60;99.90;;;;;;4956935;28;20281;-66
2022/04/12 10:47:24;;;;;;;3.60;1.92;;;26.30;99.90;;;;;;4958044;28;20206;-65
2022/04/12 10:49:53;;;;;;;3.70;1.85;;;24.60;99.90;;;;;;4957261;28;20195;-66
2022/04/12 10:52:51;;;;;;;3.55;1.90;;;25.50;99.90;;;;;;4938904;28;20199;-66
2022/04/12 10:55:23;;;;;;;6.13;2.00;;;25.80;99.90;;;;;;4939781;28;20189;-64
2022/04/12 10:57:51;;;;;;;2.80;1.67;;;25.80;99.90;;;;;;4940501;28;20212;-67
2022/04/12 11:00:20;;;;;;;4.82;2.38;;;26.70;99.90;;;;;;4954085;28;20199;-65
2022/04/12 11:02:58;;;;;;;3.63;2.05;;;25.80;99.90;;;;;;4949851;28;20859;-66
2022/04/12 11:05:42;;;;;;;3.47;1.60;;;24.20;99.90;;;;;;4935733;28;20206;-66
2022/04/12 11:08:15;;;;;;;3.05;1.85;;;24.50;99.90;;;;;;4943100;28;20248;-66
2022/04/12 11:11:04;;;;;;;3.17;1.70;;;23.60;99.90;;;;;;4956516;28;20823;-66
2022/04/12 11:13:33;;;;;;;2.10;1.50;;;25.00;99.90;;;;;;4961438;28;20203;-63
2022/04/12 11:16:07;;;;;;;2.63;1.73;;;25.70;99.90;;;;;;4957842;28;20859;-63
2022/04/12 11:18:52;;;;;;;2.63;1.70;;;25.50;99.90;;;;;;4945374;28;20195;-64
2022/04/12 11:21:21;;;;;;;3.25;1.60;;;25.80;99.90;;;;;;4937675;28;20257;-66
2022/04/12 11:23:55;;;;;;;2.42;1.48;;;26.50;99.90;;;;;;4953954;28;20205;-66
2022/04/12 11:26:26;;;;;;;4.45;1.65;;;24.60;99.90;;;;;;4953962;28;20273;-66
2022/04/12 11:28:57;;;;;;;2.80;1.55;;;25.60;99.90;;;;;;4960371;28;20306;-65
2022/04/12 11:31:26;;;;;;;2.67;1.30;;;25.80;99.90;;;;;;4961594;28;20202;-66
2022/04/12 11:33:57;;;;;;;2.20;1.73;;;25.40;99.90;;;;;;4957724;28;20278;-66
2022/04/12 11:36:24;;;;;;;2.75;1.70;;;24.80;99.90;;;;;;4955172;28;20198;-64
2022/04/12 11:38:51;;;;;;;3.33;1.70;;;25.30;99.90;;;;;;4954706;28;20756;-66
2022/04/12 11:41:18;;;;;;;2.20;1.67;;;25.00;99.90;;;;;;4944795;28;20229;-66
2022/04/12 11:43:45;;;;;;;3.47;1.67;;;25.90;99.90;;;;;;4956970;28;20260;-64
2022/04/12 11:46:16;;;;;;;2.50;1.70;;;24.20;99.90;;;;;;4940389;28;20202;-65
2022/04/12 11:48:43;;;;;;;1.75;1.40;;;24.90;99.90;;;;;;4956534;28;20218;-64
2022/04/12 11:51:10;;;;;;;1.50;1.35;;;26.30;99.90;;;;;;4954139;28;20210;-66
2022/04/12 11:53:48;;;;;;;3.22;1.50;;;26.30;99.90;;;;;;4954649;28;20274;-67
2022/04/12 11:56:14;;;;;;;3.75;1.60;;;27.80;99.90;;;;;;4948522;28;20528;-66
2022/04/12 11:58:45;;;;;;;4.25;1.70;;;27.10;99.90;;;;;;4952634;28;20209;-67
2022/04/12 12:01:13;;;;;;;2.20;1.52;;;27.20;99.90;;;;;;4950515;28;20254;-66
2022/04/12 12:03:42;;;;;;;2.85;1.30;;;24.90;99.90;;;;;;4932412;28;20257;-66
2022/04/12 12:06:09;;;;;;;2.67;1.23;;;25.10;99.90;;;;;;4953726;28;20272;-64
2022/04/12 12:08:36;;;;;;;3.28;1.40;;;25.60;99.90;;;;;;4943894;28;20209;-64
2022/04/12 12:11:11;;;;;;;2.63;1.40;;;26.20;99.90;;;;;;4944338;28;20292;-66
2022/04/12 12:13:39;;;;;;;4.47;1.50;;;26.20;99.90;;;;;;4955387;28;20277;-66
2022/04/12 12:16:16;;;;;;;4.65;1.35;;;26.20;99.90;;;;;;4956635;28;20663;-66
2022/04/12 12:18:45;;;;;;;4.97;1.27;;;25.60;99.90;;;;;;4958300;28;20650;-64
2022/04/12 12:21:16;;;;;;;3.90;1.30;;;26.30;99.90;;;;;;4956775;28;20689;-64
2022/04/12 12:23:43;;;;;;;2.95;1.35;;;25.80;99.90;;;;;;4940742;28;20203;-66
2022/04/12 12:26:10;;;;;;;4.82;1.30;;;25.10;99.90;;;;;;4938196;28;20234;-64
2022/04/12 12:28:42;;;;;;;1.92;1.45;;;25.20;99.90;;;;;;4945656;28;20270;-66
2022/04/12 12:31:10;;;;;;;2.38;1.27;;;24.60;99.90;;;;;;4957260;28;20247;-66
2022/04/12 12:33:44;;;;;;;2.05;1.20;;;25.50;99.90;;;;;;4956377;28;20198;-67
2022/04/12 12:36:19;;;;;;;3.10;1.23;;;26.30;99.90;;;;;;4957570;28;21240;-65
2022/04/12 12:38:47;;;;;;;3.60;1.60;;;26.30;99.90;;;;;;4943010;28;20687;-65
2022/04/12 12:41:31;;;;;;;2.70;1.35;;;25.50;99.90;;;;;;4958126;28;20202;-66
2022/04/12 12:44:03;;;;;;;2.75;1.30;;;25.10;99.90;;;;;;4960418;28;20351;-66
2022/04/12 12:46:34;;;;;;;1.90;1.20;;;25.20;99.90;;;;;;4947635;28;20195;-64
2022/04/12 12:49:05;;;;;;;2.05;1.30;;;24.50;99.90;;;;;;4959850;28;20219;-66
2022/04/12 12:51:33;;;;;;;2.38;1.65;;;25.20;99.90;;;;;;4943181;28;20340;-65
2022/04/12 12:54:02;;;;;;;2.65;1.40;;;24.40;99.90;;;;;;4960483;28;20205;-66
2022/04/12 12:56:41;;;;;;;2.00;1.50;;;24.90;99.90;;;;;;4958590;28;20314;-66
2022/04/12 12:59:20;;;;;;;1.90;1.20;;;25.30;99.90;;;;;;4947869;28;20198;-66
2022/04/12 13:01:49;;;;;;;1.70;1.30;;;24.50;99.90;;;;;;4949433;28;20636;-65
2022/04/12 13:04:29;;;;;;;3.20;1.40;;;24.40;99.90;;;;;;4941192;28;20210;-65
2022/04/12 13:07:07;;;;;;;3.60;1.40;;;24.10;99.90;;;;;;4956690;28;20261;-66